Yuma MCAS/Yuma International Airport
KNYL : now visible

Airfield :











YOU CAN JOIN US ON...

 
LOGIN :

Register | Disclaimer

   EN    FR    IT 

 









Legend :    VFR   Marginal VFR   IFR   Intensive IFR   Very Intensive IFR
Visi :
Ceiling :
>= 8 km
>= 3000ft
5 to 8 km
1000 to 3000 ft
1500m to 5 km
500 to 1000 ft
800 to 1500m
200 to 500 ft
< 800m
< 200 ft
Symbols :   Thunderstorms  Fog  Heavy snow  Heavy precipitations  Wind > 20 kt






- Airport Elevation : 213 ft
- IATA code : YUM


KNYL - Yuma MCAS/Yuma International

CURRENT METAR :
  • 270157Z AUTO 17005KT 10SM CLR 19/05 A3000 RMK AO2 SLP157 T01890050 $

EXPIRED METARs :
  • 270057Z AUTO 18004KT 10SM CLR 22/03 A2999 RMK AO2 SLP155 T02220033 $
  • 262357Z AUTO 00000KT 10SM CLR 24/03 A2999 RMK AO2 SLP155 T02390028 10239 20178 56017 $

TAF TAF KNYL
Valid from the 26 at 21:00 until the 27 at 21:00 UTC


2621/2721 VRB05KT 9999 SKC QNH2998INS AUTOMATED SENSOR METWATCH 2621 TIL 2714 T24/2623Z T10/2714Z



MET'MAP, your aeronautical weather chart ! - Copyright ORBIFLY December 2007 - Disclaimer

ORBIFLY MET'MAP TEAM :

Programming & Development : Alexandra Zaïnal
Concept & original design : Baudouin d'Aumeries
Assistance for programming : Marc-Olivier Méhu
Technical & hardware support : Manuel Goepfert

Contact : metmap@orbifly.com




SOURCES & CREDITS :

   NOAA       Earth
Advisory